sensor_id;sensor_type;location;lat;lon;timestamp;pressure;altitude;pressure_sealevel;temperature;humidity
80198;BME280;69517;52.030;7.106;2023-07-29T00:01:04;99833.34;;;22.36;93.77
80198;BME280;69517;52.030;7.106;2023-07-29T00:03:31;99833.34;;;22.36;93.75
80198;BME280;69517;52.030;7.106;2023-07-29T00:05:57;99822.94;;;22.34;94.02
80198;BME280;69517;52.030;7.106;2023-07-29T00:08:23;99824.72;;;22.34;93.98
80198;BME280;69517;52.030;7.106;2023-07-29T00:10:49;99825.56;;;22.34;93.18
80198;BME280;69517;52.030;7.106;2023-07-29T00:13:17;99827.34;;;22.34;93.63
80198;BME280;69517;52.030;7.106;2023-07-29T00:15:43;99826.41;;;22.35;94.13
80198;BME280;69517;52.030;7.106;2023-07-29T00:18:10;99824.72;;;22.34;94.03
80198;BME280;69517;52.030;7.106;2023-07-29T00:20:36;99831.66;;;22.35;93.99
80198;BME280;69517;52.030;7.106;2023-07-29T00:23:02;99830.84;;;22.34;93.79
80198;BME280;69517;52.030;7.106;2023-07-29T00:25:28;99824.59;;;22.35;93.82
80198;BME280;69517;52.030;7.106;2023-07-29T00:27:55;99828.31;;;22.33;93.77
80198;BME280;69517;52.030;7.106;2023-07-29T00:30:23;99830.97;;;22.33;94.12
80198;BME280;69517;52.030;7.106;2023-07-29T00:32:49;99838.84;;;22.33;93.67
80198;BME280;69517;52.030;7.106;2023-07-29T00:35:16;99832.50;;;22.35;93.52
80198;BME280;69517;52.030;7.106;2023-07-29T00:37:42;99832.78;;;22.32;93.68
80198;BME280;69517;52.030;7.106;2023-07-29T00:40:09;99830.16;;;22.32;93.72
80198;BME280;69517;52.030;7.106;2023-07-29T00:42:38;99823.78;;;22.35;93.48
80198;BME280;69517;52.030;7.106;2023-07-29T00:45:05;99820.16;;;22.36;93.34
80198;BME280;69517;52.030;7.106;2023-07-29T00:47:34;99828.47;;;22.31;93.79
80198;BME280;69517;52.030;7.106;2023-07-29T00:50:00;99817.00;;;22.32;93.81
80198;BME280;69517;52.030;7.106;2023-07-29T00:52:26;99816.00;;;22.33;93.68
80198;BME280;69517;52.030;7.106;2023-07-29T00:54:53;99817.78;;;22.33;93.67
80198;BME280;69517;52.030;7.106;2023-07-29T00:57:19;99811.84;;;22.31;93.78
80198;BME280;69517;52.030;7.106;2023-07-29T00:59:46;99811.56;;;22.34;93.00
80198;BME280;69517;52.030;7.106;2023-07-29T01:02:12;99799.22;;;22.34;93.27
80198;BME280;69517;52.030;7.106;2023-07-29T01:04:40;99809.88;;;22.33;93.88
80198;BME280;69517;52.030;7.106;2023-07-29T01:07:07;99806.44;;;22.32;93.10
80198;BME280;69517;52.030;7.106;2023-07-29T01:09:40;99808.25;;;22.32;93.30
80198;BME280;69517;52.030;7.106;2023-07-29T01:12:08;99814.34;;;22.32;93.62
80198;BME280;69517;52.030;7.106;2023-07-29T01:14:39;99816.16;;;22.32;93.66
80198;BME280;69517;52.030;7.106;2023-07-29T01:17:08;99813.50;;;22.32;93.19
80198;BME280;69517;52.030;7.106;2023-07-29T01:19:42;99811.97;;;22.29;93.82
80198;BME280;69517;52.030;7.106;2023-07-29T01:22:09;99817.94;;;22.31;93.89
80198;BME280;69517;52.030;7.106;2023-07-29T01:24:38;99816.28;;;22.30;93.64
80198;BME280;69517;52.030;7.106;2023-07-29T01:27:04;99824.06;;;22.32;93.60
80198;BME280;69517;52.030;7.106;2023-07-29T01:29:30;99825.97;;;22.30;93.28
80198;BME280;69517;52.030;7.106;2023-07-29T01:31:59;99825.13;;;22.29;93.50
80198;BME280;69517;52.030;7.106;2023-07-29T01:34:29;99825.00;;;22.31;93.57
80198;BME280;69517;52.030;7.106;2023-07-29T01:36:56;99830.41;;;22.29;93.54
80198;BME280;69517;52.030;7.106;2023-07-29T01:39:23;99829.31;;;22.32;92.93
80198;BME280;69517;52.030;7.106;2023-07-29T01:41:53;99828.31;;;22.33;92.09
80198;BME280;69517;52.030;7.106;2023-07-29T01:44:20;99808.38;;;22.30;93.32
80198;BME280;69517;52.030;7.106;2023-07-29T01:46:46;99804.91;;;22.30;93.49
80198;BME280;69517;52.030;7.106;2023-07-29T01:49:13;99796.72;;;22.33;92.92
80198;BME280;69517;52.030;7.106;2023-07-29T01:51:39;99798.28;;;22.35;91.85
80198;BME280;69517;52.030;7.106;2023-07-29T01:54:05;99796.03;;;22.31;93.35
80198;BME280;69517;52.030;7.106;2023-07-29T01:56:31;99795.22;;;22.30;93.26
80198;BME280;69517;52.030;7.106;2023-07-29T01:58:59;99794.38;;;22.30;93.55
80198;BME280;69517;52.030;7.106;2023-07-29T02:01:25;99790.78;;;22.31;92.45
80198;BME280;69517;52.030;7.106;2023-07-29T02:03:51;99795.34;;;22.29;93.35
80198;BME280;69517;52.030;7.106;2023-07-29T02:06:20;99794.38;;;22.30;93.30
80198;BME280;69517;52.030;7.106;2023-07-29T02:08:46;99790.19;;;22.27;93.56
80198;BME280;69517;52.030;7.106;2023-07-29T02:11:12;99788.41;;;22.27;93.55
80198;BME280;69517;52.030;7.106;2023-07-29T02:13:38;99779.41;;;22.30;92.93
80198;BME280;69517;52.030;7.106;2023-07-29T02:16:06;99782.88;;;22.31;92.92
80198;BME280;69517;52.030;7.106;2023-07-29T02:18:33;99778.28;;;22.33;92.62
80198;BME280;69517;52.030;7.106;2023-07-29T02:20:59;99778.56;;;22.30;93.10
80198;BME280;69517;52.030;7.106;2023-07-29T02:23:25;99776.19;;;22.26;93.39
80198;BME280;69517;52.030;7.106;2023-07-29T02:25:51;99772.59;;;22.27;93.12
80198;BME280;69517;52.030;7.106;2023-07-29T02:28:18;99770.81;;;22.28;93.20
80198;BME280;69517;52.030;7.106;2023-07-29T02:30:44;99772.75;;;22.26;93.51
80198;BME280;69517;52.030;7.106;2023-07-29T02:33:12;99768.28;;;22.26;92.93
80198;BME280;69517;52.030;7.106;2023-07-29T02:35:38;99774.28;;;22.29;93.32
80198;BME280;69517;52.030;7.106;2023-07-29T02:38:04;99766.38;;;22.29;92.91
80198;BME280;69517;52.030;7.106;2023-07-29T02:40:30;99763.75;;;22.29;92.81
80198;BME280;69517;52.030;7.106;2023-07-29T02:42:56;99771.63;;;22.29;93.16
80198;BME280;69517;52.030;7.106;2023-07-29T02:45:23;99773.56;;;22.26;92.86
80198;BME280;69517;52.030;7.106;2023-07-29T02:47:49;99776.91;;;22.29;92.18
80198;BME280;69517;52.030;7.106;2023-07-29T02:50:17;99777.63;;;22.31;93.00
80198;BME280;69517;52.030;7.106;2023-07-29T02:52:43;99773.56;;;22.26;93.38
80198;BME280;69517;52.030;7.106;2023-07-29T02:55:09;99777.03;;;22.27;93.20
80198;BME280;69517;52.030;7.106;2023-07-29T02:57:35;99775.94;;;22.30;93.06
80198;BME280;69517;52.030;7.106;2023-07-29T03:00:02;99783.13;;;22.27;92.54
80198;BME280;69517;52.030;7.106;2023-07-29T03:02:28;99776.06;;;22.28;93.33
80198;BME280;69517;52.030;7.106;2023-07-29T03:04:54;99780.66;;;22.26;93.39
80198;BME280;69517;52.030;7.106;2023-07-29T03:07:22;99786.72;;;22.26;93.44
80198;BME280;69517;52.030;7.106;2023-07-29T03:09:48;99775.38;;;22.26;93.16
80198;BME280;69517;52.030;7.106;2023-07-29T03:12:14;99780.66;;;22.26;93.14
80198;BME280;69517;52.030;7.106;2023-07-29T03:14:40;99776.19;;;22.26;92.85
80198;BME280;69517;52.030;7.106;2023-07-29T03:17:07;99770.81;;;22.28;93.02
80198;BME280;69517;52.030;7.106;2023-07-29T03:19:34;99767.50;;;22.26;92.44
80198;BME280;69517;52.030;7.106;2023-07-29T03:22:00;99769.97;;;22.27;92.73
80198;BME280;69517;52.030;7.106;2023-07-29T03:24:28;99772.75;;;22.26;93.15
80198;BME280;69517;52.030;7.106;2023-07-29T03:26:54;99774.41;;;22.27;92.99
80198;BME280;69517;52.030;7.106;2023-07-29T03:29:21;99771.09;;;22.25;93.21
80198;BME280;69517;52.030;7.106;2023-07-29T03:31:47;99783.28;;;22.26;92.45
80198;BME280;69517;52.030;7.106;2023-07-29T03:34:13;99783.28;;;22.26;93.06
80198;BME280;69517;52.030;7.106;2023-07-29T03:36:39;99776.34;;;22.25;92.53
80198;BME280;69517;52.030;7.106;2023-07-29T03:39:06;99779.81;;;22.25;92.85
80198;BME280;69517;52.030;7.106;2023-07-29T03:41:34;99761.38;;;22.25;93.01
80198;BME280;69517;52.030;7.106;2023-07-29T03:44:00;99764.56;;;22.29;92.42
80198;BME280;69517;52.030;7.106;2023-07-29T03:46:27;99763.75;;;22.29;92.14
80198;BME280;69517;52.030;7.106;2023-07-29T03:48:53;99759.72;;;22.24;92.34
80198;BME280;69517;52.030;7.106;2023-07-29T03:51:19;99760.56;;;22.25;92.81
80198;BME280;69517;52.030;7.106;2023-07-29T03:53:46;99758.75;;;22.25;92.88
80198;BME280;69517;52.030;7.106;2023-07-29T03:56:13;99756.13;;;22.25;92.82
80198;BME280;69517;52.030;7.106;2023-07-29T03:58:40;99758.59;;;22.27;93.04
80198;BME280;69517;52.030;7.106;2023-07-29T04:01:06;99762.22;;;22.26;92.79
80198;BME280;69517;52.030;7.106;2023-07-29T04:03:33;99757.75;;;22.26;91.83
80198;BME280;69517;52.030;7.106;2023-07-29T04:05:59;99746.44;;;22.26;92.72
80198;BME280;69517;52.030;7.106;2023-07-29T04:08:26;99739.50;;;22.25;92.40
80198;BME280;69517;52.030;7.106;2023-07-29T04:10:52;99745.44;;;22.27;91.95
80198;BME280;69517;52.030;7.106;2023-07-29T04:13:18;99746.56;;;22.24;92.44
80198;BME280;69517;52.030;7.106;2023-07-29T04:15:46;99744.59;;;22.26;92.22
80198;BME280;69517;52.030;7.106;2023-07-29T04:18:12;99751.81;;;22.24;93.01
80198;BME280;69517;52.030;7.106;2023-07-29T04:20:39;99751.69;;;22.26;93.03
80198;BME280;69517;52.030;7.106;2023-07-29T04:23:05;99750.16;;;22.23;93.01
80198;BME280;69517;52.030;7.106;2023-07-29T04:25:31;99750.03;;;22.25;93.01
80198;BME280;69517;52.030;7.106;2023-07-29T04:27:57;99751.81;;;22.24;92.92
80198;BME280;69517;52.030;7.106;2023-07-29T04:30:24;99748.34;;;22.24;93.02
80198;BME280;69517;52.030;7.106;2023-07-29T04:32:51;99750.03;;;22.25;92.68
80198;BME280;69517;52.030;7.106;2023-07-29T04:35:18;99730.03;;;22.22;92.90
80198;BME280;69517;52.030;7.106;2023-07-29T04:37:44;99726.44;;;22.23;92.76
80198;BME280;69517;52.030;7.106;2023-07-29T04:40:13;99731.59;;;22.25;92.80
80198;BME280;69517;52.030;7.106;2023-07-29T04:42:39;99719.50;;;22.22;92.72
80198;BME280;69517;52.030;7.106;2023-07-29T04:45:05;99736.97;;;22.23;92.43
80198;BME280;69517;52.030;7.106;2023-07-29T04:47:32;99742.25;;;22.23;92.73
80198;BME280;69517;52.030;7.106;2023-07-29T04:49:59;99743.91;;;22.24;92.58
80198;BME280;69517;52.030;7.106;2023-07-29T04:52:26;99737.81;;;22.24;92.60
80198;BME280;69517;52.030;7.106;2023-07-29T04:54:52;99737.69;;;22.25;91.66
80198;BME280;69517;52.030;7.106;2023-07-29T04:57:18;99735.72;;;22.27;90.99
80198;BME280;69517;52.030;7.106;2023-07-29T04:59:44;99748.22;;;22.25;92.62
80198;BME280;69517;52.030;7.106;2023-07-29T05:02:11;99752.78;;;22.23;91.99
80198;BME280;69517;52.030;7.106;2023-07-29T05:04:37;99750.03;;;22.25;92.17
80198;BME280;69517;52.030;7.106;2023-07-29T05:07:05;99747.66;;;22.22;92.96
80198;BME280;69517;52.030;7.106;2023-07-29T05:09:31;99758.75;;;22.25;92.66
80198;BME280;69517;52.030;7.106;2023-07-29T05:11:57;99751.81;;;22.24;91.34
80198;BME280;69517;52.030;7.106;2023-07-29T05:14:24;99747.22;;;22.26;91.01
80198;BME280;69517;52.030;7.106;2023-07-29T05:16:50;99755.84;;;22.29;92.86
80198;BME280;69517;52.030;7.106;2023-07-29T05:19:16;99751.25;;;22.21;92.23
80198;BME280;69517;52.030;7.106;2023-07-29T05:21:42;99752.22;;;22.20;93.02
80198;BME280;69517;52.030;7.106;2023-07-29T05:24:10;99760.25;;;22.18;92.80
80198;BME280;69517;52.030;7.106;2023-07-29T05:26:37;99745.72;;;22.24;92.92
80198;BME280;69517;52.030;7.106;2023-07-29T05:29:03;99733.50;;;22.23;92.90
80198;BME280;69517;52.030;7.106;2023-07-29T05:31:29;99741.28;;;22.24;92.11
80198;BME280;69517;52.030;7.106;2023-07-29T05:33:56;99733.69;;;22.31;92.43
80198;BME280;69517;52.030;7.106;2023-07-29T05:36:22;99732.56;;;22.34;93.04
80198;BME280;69517;52.030;7.106;2023-07-29T05:38:48;99723.41;;;22.28;93.19
80198;BME280;69517;52.030;7.106;2023-07-29T05:41:16;99738.78;;;22.33;93.20
80198;BME280;69517;52.030;7.106;2023-07-29T05:43:42;99732.13;;;22.29;93.39
80198;BME280;69517;52.030;7.106;2023-07-29T05:46:08;99749.31;;;22.33;93.88
80198;BME280;69517;52.030;7.106;2023-07-29T05:48:35;99744.22;;;22.31;94.02
80198;BME280;69517;52.030;7.106;2023-07-29T05:51:01;99771.38;;;22.32;94.27
80198;BME280;69517;52.030;7.106;2023-07-29T05:53:27;99779.13;;;22.33;94.24
80198;BME280;69517;52.030;7.106;2023-07-29T05:55:54;99781.91;;;22.32;94.77
80198;BME280;69517;52.030;7.106;2023-07-29T05:58:21;99797.44;;;22.35;94.80
80198;BME280;69517;52.030;7.106;2023-07-29T06:00:48;99804.25;;;22.37;94.63
80198;BME280;69517;52.030;7.106;2023-07-29T06:05:40;99798.81;;;22.39;94.73
80198;BME280;69517;52.030;7.106;2023-07-29T06:08:07;99806.03;;;22.37;95.09
80198;BME280;69517;52.030;7.106;2023-07-29T06:13:00;99808.13;;;22.43;94.67
80198;BME280;69517;52.030;7.106;2023-07-29T06:15:27;99808.81;;;22.45;95.25
80198;BME280;69517;52.030;7.106;2023-07-29T06:17:54;99801.75;;;22.45;95.46
80198;BME280;69517;52.030;7.106;2023-07-29T06:20:20;99804.97;;;22.49;94.96
80198;BME280;69517;52.030;7.106;2023-07-29T06:22:46;99804.97;;;22.49;95.07
80198;BME280;69517;52.030;7.106;2023-07-29T06:25:12;99804.69;;;22.52;95.17
80198;BME280;69517;52.030;7.106;2023-07-29T06:27:39;99817.84;;;22.52;95.13
80198;BME280;69517;52.030;7.106;2023-07-29T06:30:05;99815.50;;;22.49;95.59
80198;BME280;69517;52.030;7.106;2023-07-29T06:32:33;99815.50;;;22.49;95.56
80198;BME280;69517;52.030;7.106;2023-07-29T06:34:59;99822.44;;;22.50;95.48
80198;BME280;69517;52.030;7.106;2023-07-29T06:37:26;99827.56;;;22.51;95.52
80198;BME280;69517;52.030;7.106;2023-07-29T06:39:52;99831.19;;;22.50;95.51
80198;BME280;69517;52.030;7.106;2023-07-29T06:42:18;99834.34;;;22.44;95.09
80198;BME280;69517;52.030;7.106;2023-07-29T06:44:44;99834.47;;;22.43;94.52
80198;BME280;69517;52.030;7.106;2023-07-29T06:47:11;99831.84;;;22.43;94.14
80198;BME280;69517;52.030;7.106;2023-07-29T06:49:39;99830.88;;;22.44;94.39
80198;BME280;69517;52.030;7.106;2023-07-29T06:52:05;99829.63;;;22.48;95.21
80198;BME280;69517;52.030;7.106;2023-07-29T06:54:32;99831.44;;;22.47;94.91
80198;BME280;69517;52.030;7.106;2023-07-29T06:56:58;99828.25;;;22.44;95.55
80198;BME280;69517;52.030;7.106;2023-07-29T06:59:24;99828.38;;;22.42;95.46
80198;BME280;69517;52.030;7.106;2023-07-29T07:01:51;99834.03;;;22.38;95.58
80198;BME280;69517;52.030;7.106;2023-07-29T07:04:17;99839.44;;;22.36;95.61
80198;BME280;69517;52.030;7.106;2023-07-29T07:06:44;99839.16;;;22.39;95.29
80198;BME280;69517;52.030;7.106;2023-07-29T07:09:11;99849.00;;;22.37;94.86
80198;BME280;69517;52.030;7.106;2023-07-29T07:11:37;99847.22;;;22.38;94.86
80198;BME280;69517;52.030;7.106;2023-07-29T07:14:03;99851.78;;;22.36;95.39
80198;BME280;69517;52.030;7.106;2023-07-29T07:16:29;99856.34;;;22.34;94.74
80198;BME280;69517;52.030;7.106;2023-07-29T07:18:56;99854.41;;;22.36;93.57
80198;BME280;69517;52.030;7.106;2023-07-29T07:23:50;99858.72;;;22.37;93.31
80198;BME280;69517;52.030;7.106;2023-07-29T07:26:16;99845.78;;;22.34;93.51
80198;BME280;69517;52.030;7.106;2023-07-29T07:28:42;99845.94;;;22.32;94.68
80198;BME280;69517;52.030;7.106;2023-07-29T07:31:09;99845.13;;;22.32;94.87
80198;BME280;69517;52.030;7.106;2023-07-29T07:33:35;99850.38;;;22.32;94.64
80198;BME280;69517;52.030;7.106;2023-07-29T07:36:01;99847.03;;;22.30;94.93
80198;BME280;69517;52.030;7.106;2023-07-29T07:38:28;99840.09;;;22.29;95.21
80198;BME280;69517;52.030;7.106;2023-07-29T07:40:55;99838.19;;;22.31;93.99
80198;BME280;69517;52.030;7.106;2023-07-29T07:43:22;99842.31;;;22.33;94.60
80198;BME280;69517;52.030;7.106;2023-07-29T07:45:48;99845.53;;;22.37;94.12
80198;BME280;69517;52.030;7.106;2023-07-29T07:48:15;99838.06;;;22.42;94.05
80198;BME280;69517;52.030;7.106;2023-07-29T07:50:47;99841.53;;;22.42;93.92
80198;BME280;69517;52.030;7.106;2023-07-29T07:53:13;99841.78;;;22.39;93.98
80198;BME280;69517;52.030;7.106;2023-07-29T07:55:40;99844.06;;;22.44;93.79
80198;BME280;69517;52.030;7.106;2023-07-29T07:58:07;99846.81;;;22.42;94.17
80198;BME280;69517;52.030;7.106;2023-07-29T08:00:33;99837.09;;;22.43;93.98
80198;BME280;69517;52.030;7.106;2023-07-29T08:03:00;99828.38;;;22.42;93.93
80198;BME280;69517;52.030;7.106;2023-07-29T08:05:26;99842.63;;;22.40;94.16
80198;BME280;69517;52.030;7.106;2023-07-29T08:07:52;99832.69;;;22.43;93.84
80198;BME280;69517;52.030;7.106;2023-07-29T08:10:18;99835.56;;;22.40;93.92
80198;BME280;69517;52.030;7.106;2023-07-29T08:12:45;99837.09;;;22.43;93.84
80198;BME280;69517;52.030;7.106;2023-07-29T08:15:12;99840.00;;;22.40;94.35
80198;BME280;69517;52.030;7.106;2023-07-29T08:17:38;99838.06;;;22.42;94.18
80198;BME280;69517;52.030;7.106;2023-07-29T08:20:05;99835.47;;;22.11;90.40
80198;BME280;69517;52.030;7.106;2023-07-29T08:22:32;99836.41;;;21.90;90.10
80198;BME280;69517;52.030;7.106;2023-07-29T08:24:58;99836.38;;;21.59;91.14
80198;BME280;69517;52.030;7.106;2023-07-29T08:27:25;99844.03;;;21.62;91.56
80198;BME280;69517;52.030;7.106;2023-07-29T08:29:51;99842.75;;;21.57;90.73
80198;BME280;69517;52.030;7.106;2023-07-29T08:32:18;99841.69;;;21.48;90.91
80198;BME280;69517;52.030;7.106;2023-07-29T08:34:45;99847.34;;;21.43;91.16
80198;BME280;69517;52.030;7.106;2023-07-29T08:37:11;99838.72;;;21.53;90.39
80198;BME280;69517;52.030;7.106;2023-07-29T08:39:38;99843.94;;;21.73;89.84
80198;BME280;69517;52.030;7.106;2023-07-29T08:42:04;99836.56;;;21.88;89.14
80198;BME280;69517;52.030;7.106;2023-07-29T08:44:35;99834.00;;;21.98;88.96
80198;BME280;69517;52.030;7.106;2023-07-29T08:47:02;99837.66;;;22.06;88.65
80198;BME280;69517;52.030;7.106;2023-07-29T08:49:30;99841.97;;;22.07;88.86
80198;BME280;69517;52.030;7.106;2023-07-29T08:51:57;99841.25;;;22.05;89.44
80198;BME280;69517;52.030;7.106;2023-07-29T08:54:23;99841.13;;;22.07;89.41
80198;BME280;69517;52.030;7.106;2023-07-29T08:56:49;99846.94;;;22.10;89.48
80198;BME280;69517;52.030;7.106;2023-07-29T08:59:16;99844.19;;;22.12;89.81
80198;BME280;69517;52.030;7.106;2023-07-29T09:01:43;99846.69;;;22.13;89.79
80198;BME280;69517;52.030;7.106;2023-07-29T09:04:09;99849.19;;;22.15;90.15
80198;BME280;69517;52.030;7.106;2023-07-29T09:06:37;99847.97;;;22.19;89.96
80198;BME280;69517;52.030;7.106;2023-07-29T09:09:05;99847.25;;;22.17;89.95
80198;BME280;69517;52.030;7.106;2023-07-29T09:11:32;99838.13;;;22.21;89.19
80198;BME280;69517;52.030;7.106;2023-07-29T09:13:59;99846.84;;;22.21;89.09
80198;BME280;69517;52.030;7.106;2023-07-29T09:16:25;99838.00;;;22.22;89.28
80198;BME280;69517;52.030;7.106;2023-07-29T09:18:51;99831.06;;;22.21;89.14
80198;BME280;69517;52.030;7.106;2023-07-29T09:21:18;99824.84;;;22.22;90.15
80198;BME280;69517;52.030;7.106;2023-07-29T09:23:49;99834.66;;;22.20;90.52
80198;BME280;69517;52.030;7.106;2023-07-29T09:26:18;99836.19;;;22.23;89.98
80198;BME280;69517;52.030;7.106;2023-07-29T09:28:50;99835.25;;;22.24;90.33
80198;BME280;69517;52.030;7.106;2023-07-29T09:31:18;99841.75;;;22.20;90.41
80198;BME280;69517;52.030;7.106;2023-07-29T09:33:44;99842.03;;;22.26;89.79
80198;BME280;69517;52.030;7.106;2023-07-29T09:36:11;99849.25;;;22.24;89.08
80198;BME280;69517;52.030;7.106;2023-07-29T09:38:37;99857.13;;;22.24;90.72
80198;BME280;69517;52.030;7.106;2023-07-29T09:41:05;99851.16;;;22.22;90.65
80198;BME280;69517;52.030;7.106;2023-07-29T09:43:32;99846.47;;;22.26;89.94
80198;BME280;69517;52.030;7.106;2023-07-29T09:45:59;99854.22;;;22.27;90.97
80198;BME280;69517;52.030;7.106;2023-07-29T09:48:26;99847.28;;;22.26;90.90
80198;BME280;69517;52.030;7.106;2023-07-29T09:50:53;99837.03;;;22.23;91.44
80198;BME280;69517;52.030;7.106;2023-07-29T09:53:20;99839.69;;;22.33;90.86
80198;BME280;69517;52.030;7.106;2023-07-29T09:55:46;99848.97;;;22.27;90.86
80198;BME280;69517;52.030;7.106;2023-07-29T09:58:14;99850.91;;;22.25;90.53
80198;BME280;69517;52.030;7.106;2023-07-29T10:00:45;99854.38;;;22.26;90.00
80198;BME280;69517;52.030;7.106;2023-07-29T10:03:12;99851.69;;;22.16;90.92
80198;BME280;69517;52.030;7.106;2023-07-29T10:05:40;99861.97;;;22.19;90.00
80198;BME280;69517;52.030;7.106;2023-07-29T10:08:07;99858.09;;;22.23;90.33
80198;BME280;69517;52.030;7.106;2023-07-29T10:10:33;99861.16;;;22.29;89.71
80198;BME280;69517;52.030;7.106;2023-07-29T10:12:59;99861.44;;;22.25;91.17
80198;BME280;69517;52.030;7.106;2023-07-29T10:15:28;99860.34;;;22.28;91.04
80198;BME280;69517;52.030;7.106;2023-07-29T10:17:55;99858.94;;;22.24;91.49
80198;BME280;69517;52.030;7.106;2023-07-29T10:20:22;99851.22;;;22.32;91.59
80198;BME280;69517;52.030;7.106;2023-07-29T10:22:48;99852.56;;;22.26;92.04
80198;BME280;69517;52.030;7.106;2023-07-29T10:25:15;99858.97;;;22.34;92.29
80198;BME280;69517;52.030;7.106;2023-07-29T10:27:43;99853.69;;;22.34;91.98
80198;BME280;69517;52.030;7.106;2023-07-29T10:30:10;99856.34;;;22.34;91.92
80198;BME280;69517;52.030;7.106;2023-07-29T10:32:39;99866.19;;;22.32;91.50
80198;BME280;69517;52.030;7.106;2023-07-29T10:35:07;99859.66;;;22.36;91.28
80198;BME280;69517;52.030;7.106;2023-07-29T10:37:34;99856.34;;;22.34;91.30
80198;BME280;69517;52.030;7.106;2023-07-29T10:40:00;99860.63;;;22.35;91.59
80198;BME280;69517;52.030;7.106;2023-07-29T10:42:27;99854.53;;;22.34;92.28
80198;BME280;69517;52.030;7.106;2023-07-29T10:44:53;99847.34;;;22.36;92.45
80198;BME280;69517;52.030;7.106;2023-07-29T10:47:20;99847.06;;;22.39;92.03
80198;BME280;69517;52.030;7.106;2023-07-29T10:49:49;99848.19;;;22.37;92.87
80198;BME280;69517;52.030;7.106;2023-07-29T10:52:16;99862.03;;;22.39;93.14
80198;BME280;69517;52.030;7.106;2023-07-29T10:54:43;99856.94;;;22.47;93.03
80198;BME280;69517;52.030;7.106;2023-07-29T10:57:12;99855.00;;;22.49;94.02
80198;BME280;69517;52.030;7.106;2023-07-29T10:59:39;99848.19;;;22.46;93.80
80198;BME280;69517;52.030;7.106;2023-07-29T11:02:11;99851.41;;;22.50;93.96
80198;BME280;69517;52.030;7.106;2023-07-29T11:04:45;99856.41;;;22.53;94.53
80198;BME280;69517;52.030;7.106;2023-07-29T11:07:20;99853.22;;;22.59;96.60
80198;BME280;69517;52.030;7.106;2023-07-29T11:09:52;99851.56;;;22.58;94.60
80198;BME280;69517;52.030;7.106;2023-07-29T11:12:41;99850.16;;;22.54;93.46
80198;BME280;69517;52.030;7.106;2023-07-29T11:15:18;99851.00;;;22.54;92.47
80198;BME280;69517;52.030;7.106;2023-07-29T11:17:45;99843.22;;;22.53;94.07
80198;BME280;69517;52.030;7.106;2023-07-29T11:20:12;99845.88;;;22.53;94.12
80198;BME280;69517;52.030;7.106;2023-07-29T11:22:40;99841.84;;;22.49;93.73
80198;BME280;69517;52.030;7.106;2023-07-29T11:25:08;99855.25;;;22.46;94.54
80198;BME280;69517;52.030;7.106;2023-07-29T11:27:35;99858.47;;;22.49;94.00
80198;BME280;69517;52.030;7.106;2023-07-29T11:30:02;99854.19;;;22.48;93.99
80198;BME280;69517;52.030;7.106;2023-07-29T11:32:30;99856.69;;;22.50;93.45
80198;BME280;69517;52.030;7.106;2023-07-29T11:34:56;99852.25;;;22.50;93.37
80198;BME280;69517;52.030;7.106;2023-07-29T11:37:22;99850.41;;;22.51;93.27
80198;BME280;69517;52.030;7.106;2023-07-29T11:39:50;99851.25;;;22.51;93.79
80198;BME280;69517;52.030;7.106;2023-07-29T11:42:16;99852.94;;;22.52;93.45
80198;BME280;69517;52.030;7.106;2023-07-29T11:44:43;99855.69;;;22.51;93.45
80198;BME280;69517;52.030;7.106;2023-07-29T11:47:09;99855.84;;;22.49;94.09
80198;BME280;69517;52.030;7.106;2023-07-29T11:49:37;99856.53;;;22.51;93.98
80198;BME280;69517;52.030;7.106;2023-07-29T11:52:05;99847.94;;;22.49;93.90
80198;BME280;69517;52.030;7.106;2023-07-29T11:54:32;99840.72;;;22.51;93.73
80198;BME280;69517;52.030;7.106;2023-07-29T11:56:59;99833.81;;;22.50;93.74
80198;BME280;69517;52.030;7.106;2023-07-29T11:59:26;99845.16;;;22.51;93.84
80198;BME280;69517;52.030;7.106;2023-07-29T12:01:53;99844.06;;;22.53;93.84
80198;BME280;69517;52.030;7.106;2023-07-29T12:04:19;99842.25;;;22.54;93.84
80198;BME280;69517;52.030;7.106;2023-07-29T12:06:46;99843.22;;;22.53;93.92
80198;BME280;69517;52.030;7.106;2023-07-29T12:09:12;99838.66;;;22.55;93.50
80198;BME280;69517;52.030;7.106;2023-07-29T12:11:38;99842.13;;;22.55;93.57
80198;BME280;69517;52.030;7.106;2023-07-29T12:14:08;99841.03;;;22.58;93.09
80198;BME280;69517;52.030;7.106;2023-07-29T12:16:39;99834.38;;;22.54;93.40
80198;BME280;69517;52.030;7.106;2023-07-29T12:19:06;99836.88;;;22.55;93.08
80198;BME280;69517;52.030;7.106;2023-07-29T12:21:32;99826.47;;;22.54;93.22
80198;BME280;69517;52.030;7.106;2023-07-29T12:23:58;99830.75;;;22.55;93.33
80198;BME280;69517;52.030;7.106;2023-07-29T12:26:27;99832.44;;;22.56;92.92
80198;BME280;69517;52.030;7.106;2023-07-29T12:28:53;99826.06;;;22.58;92.75
80198;BME280;69517;52.030;7.106;2023-07-29T12:31:20;99822.16;;;22.53;93.20
80198;BME280;69517;52.030;7.106;2023-07-29T12:33:47;99832.97;;;22.50;93.48
80198;BME280;69517;52.030;7.106;2023-07-29T12:36:13;99822.44;;;22.50;93.60
80198;BME280;69517;52.030;7.106;2023-07-29T12:38:42;99830.19;;;22.51;93.46
80198;BME280;69517;52.030;7.106;2023-07-29T12:41:08;99823.00;;;22.53;93.33
80198;BME280;69517;52.030;7.106;2023-07-29T12:43:34;99830.06;;;22.53;93.34
80198;BME280;69517;52.030;7.106;2023-07-29T12:46:01;99820.47;;;22.52;93.56
80198;BME280;69517;52.030;7.106;2023-07-29T12:48:28;99821.59;;;22.49;93.32
80198;BME280;69517;52.030;7.106;2023-07-29T12:50:54;99827.72;;;22.50;93.53
80198;BME280;69517;52.030;7.106;2023-07-29T12:53:21;99830.19;;;22.51;93.31
80198;BME280;69517;52.030;7.106;2023-07-29T12:55:47;99829.50;;;22.49;93.33
80198;BME280;69517;52.030;7.106;2023-07-29T12:58:13;99842.81;;;22.57;93.54
80198;BME280;69517;52.030;7.106;2023-07-29T13:00:39;99832.16;;;22.59;93.95
80198;BME280;69517;52.030;7.106;2023-07-29T13:03:06;99833.81;;;22.60;93.46
80198;BME280;69517;52.030;7.106;2023-07-29T13:05:33;99843.53;;;22.59;93.71